»·PEaware :: FSLCD KLAX-KSNA

FSLCD :: KLAX-KSNA

FLIGHT INFORMATION

Flight Status: Arrived
Operator: Unknown
More flights by this operator :: More flights under this callsign
Pilot: Gopalakrishna Pillai Sulekha S. (22834)
Aircraft: ROBIN DR-400
(DR40)
More flights by this aircraft type
Origin: KLAX Los Angeles Intl
United States
Destination: KSNA John Wayne-Orange Co
United States
More flights between these airports :: More routes between these airports
Route: SLI8 SLI
File this flight plan on PilotEdge
Remarks: I6 RATING
Altitude:
(Current/Filed)
4,000ft
Speed:
(Current/Filed)
120kts
Departed: 16-Feb-19 06:31 PM
Arrived: 16-Feb-19 07:18 PM
Distance/Time
Traveled:
31nm/0:47
Distance/Time
To Go:
Arrived

Flight Plot

Page will automatically refresh every two minutes.

Flight plan parsing failed; only flown route is shown


Map Options




Map Legend


Flown Route
Filed Route
Departure Airport
Arrival Airport
Navaid (VOR, NDB)
Fix

Horizontal Profiles

Position Reports

Time Latitude Longitude Heading Altitude Ground
Speed
16-Feb-19 18:17 33.933665 -118.399069 175 109ft 0kts
16-Feb-19 18:18 33.933665 -118.399069 175 109ft 0kts
16-Feb-19 18:19 33.933665 -118.399069 175 109ft 0kts
16-Feb-19 18:20 33.933665 -118.399069 175 109ft 0kts
16-Feb-19 18:21 33.933665 -118.399069 175 109ft 0kts
16-Feb-19 18:22 33.933665 -118.399069 175 109ft 0kts
16-Feb-19 18:23 33.933665 -118.399069 175 109ft 0kts
16-Feb-19 18:24 33.933606 -118.399067 182 109ft 0kts
16-Feb-19 18:25 33.934308 -118.398170 4 108ft 8kts
16-Feb-19 18:26 33.935324 -118.390612 83 101ft 32kts
16-Feb-19 18:27 33.936492 -118.382808 14 95ft 0kts
16-Feb-19 18:28 33.936492 -118.382808 14 95ft 0kts
16-Feb-19 18:29 33.937033 -118.382889 330 95ft 9kts
16-Feb-19 18:30 33.935059 -118.398928 263 973ft 66kts
16-Feb-19 18:31 33.931141 -118.417623 263 2591ft 51kts
16-Feb-19 18:32 33.926002 -118.432892 263 3972ft 68kts
16-Feb-19 18:33 33.909338 -118.452562 212 3995ft 110kts
16-Feb-19 18:34 33.880382 -118.461756 212 3995ft 106kts
16-Feb-19 18:35 33.851866 -118.470617 212 3995ft 105kts
16-Feb-19 18:36 33.824393 -118.480092 212 4014ft 99kts
16-Feb-19 18:37 33.797925 -118.477383 142 4015ft 124kts
16-Feb-19 18:38 33.774220 -118.446956 142 4015ft 124kts
16-Feb-19 18:39 33.750572 -118.416588 142 4015ft 124kts
16-Feb-19 18:40 33.727123 -118.386201 142 4013ft 121kts
16-Feb-19 18:41 33.704622 -118.356604 142 4015ft 118kts
16-Feb-19 18:42 33.682864 -118.327758 142 4014ft 113kts
16-Feb-19 18:43 33.661867 -118.299599 141 4015ft 112kts
16-Feb-19 18:44 33.665766 -118.270507 13 4007ft 94kts
16-Feb-19 18:45 33.684872 -118.245241 42 4002ft 106kts
16-Feb-19 18:46 33.700716 -118.215484 43 3998ft 104kts
16-Feb-19 18:47 33.716135 -118.185675 43 3998ft 105kts
16-Feb-19 18:48 33.732331 -118.154218 45 3999ft 113kts
16-Feb-19 18:49 33.749049 -118.121610 45 3989ft 114kts
16-Feb-19 18:50 33.765806 -118.088958 43 3999ft 116kts
16-Feb-19 18:51 33.780625 -118.053319 60 3998ft 125kts
16-Feb-19 18:52 33.792865 -118.014496 54 3989ft 123kts
16-Feb-19 18:53 33.808881 -117.979384 45 3989ft 119kts
16-Feb-19 18:54 33.825781 -117.945043 46 3985ft 119kts
16-Feb-19 18:55 33.839968 -117.908220 54 3980ft 122kts
16-Feb-19 18:56 33.854797 -117.870487 54 3984ft 130kts
16-Feb-19 18:58 33.870357 -117.830374 54 3981ft 133kts
16-Feb-19 18:59 33.886270 -117.789901 53 3981ft 133kts
16-Feb-19 19:00 33.902245 -117.751561 52 3982ft 127kts
16-Feb-19 19:01 33.919552 -117.713839 27 3983ft 119kts
16-Feb-19 19:02 33.942661 -117.688091 25 3968ft 112kts
16-Feb-19 19:03 33.958577 -117.687501 241 3490ft 61kts
16-Feb-19 19:04 33.942607 -117.696523 230 3501ft 58kts
16-Feb-19 19:05 33.928809 -117.706441 229 3501ft 57kts
16-Feb-19 19:06 33.914057 -117.716581 226 3404ft 65kts
16-Feb-19 19:07 33.898373 -117.726906 225 3409ft 66kts
16-Feb-19 19:08 33.881560 -117.737811 224 3403ft 71kts
16-Feb-19 19:09 33.863094 -117.749693 222 3403ft 80kts
16-Feb-19 19:10 33.841104 -117.763837 218 3033ft 105kts
16-Feb-19 19:11 33.820770 -117.776515 224 2813ft 66kts
16-Feb-19 19:12 33.798446 -117.791012 216 2280ft 108kts
16-Feb-19 19:13 33.776724 -117.804679 218 2147ft 84kts
16-Feb-19 19:14 33.754083 -117.819131 216 1783ft 99kts
16-Feb-19 19:15 33.728871 -117.835124 213 1133ft 103kts
16-Feb-19 19:16 33.703368 -117.851278 213 568ft 86kts
16-Feb-19 19:17 33.684802 -117.862902 213 184ft 69kts
16-Feb-19 19:18 33.677982 -117.868105 297 45ft 0kts
16-Feb-19 19:19 33.677982 -117.868105 297 45ft 0kts
16-Feb-19 19:20 33.677982 -117.868105 297 45ft 0kts
16-Feb-19 19:20 33.677982 -117.868105 297 45ft 0kts
16-Feb-19 19:21 33.677982 -117.868105 297 45ft 0kts
16-Feb-19 19:23 33.678044 -117.868264 291 45ft 6kts
16-Feb-19 19:24 33.672937 -117.872109 209 49ft 24kts
16-Feb-19 19:24 33.672688 -117.873425 206 50ft 0kts

Navigation Log

Ident Type
Flight plan parsing failed, navigation log unavailable